SiktMolnbas
>≥ 10km≥ 10km ≥ 2000ft≥ 2000ft
< 10km< 10km < 2000ft< 2000ft
< 8km< 8km < 1500ft< 1500ft
< 5km< 5km < 1000ft< 1000ft
< 3km< 3km < 500ft< 500ft

Nytt 18 jan 2017:

Nytt 17 jan 2017:

ESNQ (13:20 UTC)

Kiruna flygplats

METAR

ESNQ 201320Z AUTO 20013KT 9999 OVC029/// 05/M02 Q1027=

TAF

ESNQ 201330Z 2014/2018 19015KT 9999 BKN030=

ESNG (13:20 UTC)

Gällivare (Kavaheden), Lapland Airport

METAR

ESNG 201320Z 15009KT 9999 BKN040 06/M00 Q1028=

TAF

RA

ESNG 201130Z 2012/2021 16010KT 9999 SCT020 OVC040 TEMPO 2012/2021 RA=

ESPA (13:20 UTC)

Luleå Airport (Kallax)

METAR

ESPA 201320Z 14010KT 9999 BKN032 07/01 Q1031=

TAF

SHRA

ESPA COR 201147Z 2012/2021 16010KT 9999 -SHRA SCT025 BKN040 RMK MIL=

ESNL (13:20 UTC)

Lycksele flygplats

METAR

ESNL 201320Z AUTO 17008KT 9999 FEW023/// SCT028/// OVC045/// 08/02 Q1028=

TAF

Ingen TAF hittades.

ESNU (13:20 UTC)

Umeå City Airport

METAR

ESNU 201320Z 15004KT 9999 OVC030 07/03 Q1030=

TAF

RA

ESNU 201130Z 2012/2021 13006KT 9999 SCT025 OVC035 TEMPO 2012/2017 RA=

ESNO (13:20 UTC)

Örnsköldsvik flygplats

METAR

ESNO 201320Z AUTO 10009KT 9999 SCT025/// OVC036/// 07/02 Q1029=

TAF

Ingen TAF hittades.

ESNK (13:20 UTC)

Kramfors-Sollefteå flygplats

METAR

ESNK 201320Z 14008KT 9999 FEW023 BKN036 BKN048 08/02 Q1029=

TAF

RA

ESNK 201130Z 2012/2016 13005KT 9999 OVC040 TEMPO 2012/2016 RA=

ESNN (13:20 UTC)

Sundsvall-Härnösands flygplats (Midlanda)

METAR

ESNN 201320Z 11005KT 080V140 9999 BKN029 OVC051 08/03 Q1028=

TAF

RA

ESNN 200830Z 2009/2012 13005KT 9999 OVC030 PROB40 2009/2012 RA=

ESNZ (13:20 UTC)

Åre Östersund Airport (Frösön)

METAR

ESNZ 201320Z 16006KT 9999 BKN029 06/03 Q1025=

TAF

Ingen TAF hittades.

ESNS (13:20 UTC)

Skellefteå flygplats

METAR

ESNS 201320Z 11008KT 080V160 9999 SCT028 BKN040 08/02 Q1030=

TAF

RA

ESNS 201130Z 2012/2018 11006KT 9999 SCT025 BKN040 TEMPO 2012/2017 RA=

ESGT (13:20 UTC)

Trollhättan-Vänersborgs flygplats (Malöga flygplats)

METAR

ESGT 201320Z 03007KT CAVOK 10/04 Q1026=

TAF

ESGT 201130Z 2012/2014 07006KT 9999 SCT015 BKN055=

ESGG (13:20 UTC)

Göteborg-Landvetter flygplats

METAR

ESGG 201320Z 10004KT 050V140 9999 BKN039 10/04 Q1025=

TAF

ESGG 201130Z 2012/2112 04006KT CAVOK BECMG 2110/2112 21013KT=

ESMT (13:20 UTC)

Halmstads flygplats

METAR

ESMT 201320Z 01006KT 9999 FEW046 BKN051 12/06 Q1024=

TAF

ESMT 201106Z 2012/2018 03008KT 9999 BKN045=

ESTA (13:20 UTC)

Ängelholm-Helsingborg flygplats

METAR

ESTA 201320Z 03005KT 360V070 9999 SCT043 BKN055 13/04 Q1024=

TAF

ESTA 201106Z 2012/2019 04006KT 9999 SCT035=

ESTL (13:20 UTC)

Ljungbyheds flygplats

METAR

ESTL 201320Z 00000KT 9999 FEW040 14/04 Q1024=

TAF

ESTL 201106Z 2012/2015 05005KT 9999 SCT035=

ESMS (13:20 UTC)

Malmö Airport

METAR

ESMS 201320Z 06004KT 030V090 CAVOK 14/05 Q1023=

TAF

ESMS 201107Z 2012/2112 06010KT 9999 SCT040 BECMG 2020/2023 30005KT=

ESMK (13:20 UTC)

Kristianstad Airport

METAR

ESMK 201320Z 09003KT 040V120 9999 FEW040 BKN055 13/05 Q1023=

TAF

ESMK 201106Z 2012/2016 03006KT 9999 SCT045=

ESDF (13:20 UTC)

Ronneby flygplats

METAR

ESDF 201320Z 36004KT 320V030 CAVOK 13/06 Q1023=

TAF

TCU

ESDF 201130Z 2012/2020 03008KT 9999 FEW040 PROB40 2012/2014 BKN025TCU RMK MIL=

ESMQ (13:20 UTC)

Kalmar Airport

METAR

ESMQ 201320Z 03008KT 9999 FEW035 BKN040 12/05 Q1024=

TAF

ESMQ 201130Z 2012/2020 02008KT 9999 BKN045=

ESMX (12:50 UTC)

Växjö, Smaland Airport

METAR

ESMX 201250Z 36005KT 330V030 9999 BKN046 11/05 Q1024=

TAF

ESMX 201130Z 2012/2021 05007KT 9999 FEW020 BKN050=

ESGJ (13:20 UTC)

Jönköping Airport

METAR

ESGJ 201320Z 01008KT 9999 BKN049 09/07 Q1025=

TAF

RA

ESGJ 201130Z 2012/2015 02006KT 9999 -RA BKN025=

ESSA (13:20 UTC)

Stockholm-Arlanda flygplats

METAR

ESSA 201320Z 07008KT CAVOK 10/03 Q1026 NOSIG=

TAF

ESSA 201130Z 2012/2112 08007KT 9999 BKN040=

ESSB (13:20 UTC)

Stockholm-Bromma flygplats

METAR

ESSB 201320Z 07007KT 020V110 CAVOK 11/04 Q1026=

TAF

ESSB 201130Z 2012/2021 03006KT 9999 BKN040=

ESKN (13:20 UTC)

Stockholm-Skavsta flygplats

METAR

ESKN 201320Z 02006KT 340V050 9999 BKN044 10/05 Q1025=

TAF

SHRATCU

ESKN 201130Z 2012/2112 08006KT 9999 BKN035 PROB40 2012/2014 SHRA SCT030TCU=

ESSP (13:20 UTC)

Norrköping flygplats

METAR

ESSP 201320Z 05008KT 9999 BKN029 10/05 Q1025=

TAF

ESSP 201130Z 2012/2015 05010KT 9999 BKN020 BECMG 2013/2015 11006KT=

ESSL (13:20 UTC)

Linköping - SAAB Flygplats

METAR

ESSL 201320Z 02006KT 350V050 9999 BKN036 11/06 Q1025=

TAF

TCU

ESSL 201130Z 2012/2017 03005KT 9999 SCT030 BKN050 PROB40 2012/2015 BKN040TCU=

ESSV (13:20 UTC)

Visby flygplats

METAR

ESSV 201320Z 05014KT 9999 FEW036 12/03 Q1023=

TAF

ESSV COR 201225Z 2012/2020 04012KT 9999 BKN035=

ESOW (13:20 UTC)

Stockholm-Västerås flygplats

METAR

ESOW 201320Z 04006KT 9999 BKN042 BKN064 11/02 Q1026=

TAF

ESOW 201130Z 2012/2020 06005KT 9999 SCT045=

ESOE (13:20 UTC)

Örebro flygplats

METAR

ESOE 201320Z AUTO 06004KT 9999 FEW036/// BKN061/// 11/04 Q1026=

TAF

ESOE 201230Z 2013/2021 05008KT CAVOK=

ESOK (13:20 UTC)

Karlstad Airport

METAR

ESOK 201320Z VRB03KT CAVOK 10/03 Q1026=

TAF

ESOK 201130Z 2012/2015 VRB03KT 9999 SCT040=

ESSD (13:20 UTC)

Borlänge, Dala Airport

METAR

ESSD 201320Z 10004KT 070V130 9999 FEW042 BKN055 10/02 Q1026=

TAF

SHRATCU

ESSD 201130Z 2012/2016 13005KT 9999 BKN040 PROB40 2012/2016 SHRA SCT030TCU=

ESGR (13:20 UTC)

Skövde flygplats

METAR

ESGR 201320Z AUTO 02005KT 9999 OVC059/// 10/04 Q1026=

TAF

Ingen TAF hittades.

ESIB (13:20 UTC)

Såtenäs

METAR

ESIB 201320Z 03004KT 360V060 9999 FEW040 BKN060 11/04 Q1026=

TAF

SHRATCU

ESIB 201130Z 2012/2015 08010KT CAVOK TEMPO 2012/2015 -SHRA BKN025TCU RMK MIL=

ESNV (13:20 UTC)

Vilhelmina flygplats

METAR

ESNV 201320Z AUTO 13009KT 9999 BKN027/// OVC046/// 06/01 Q1027=

TAF

Ingen TAF hittades.

ESST (13:20 UTC)

Torsby flygplats (Fryklanda)

METAR

ESST 201320Z AUTO VRB02KT 9999 FEW034/// BKN053/// 10/04 Q1026=

TAF

Ingen TAF hittades.

ESUT (13:20 UTC)

Hemavans flygplats

METAR

ESUT 201320Z AUTO 14013KT 9999 FEW019/// SCT030/// OVC038/// 05/00 Q1025=

TAF

Ingen TAF hittades.

ESNX (13:20 UTC)

Arvidsjaur flygplats

METAR

ESNX 201320Z 16008KT 9999 SCT018 BKN040 06/02 Q1028=

TAF

RA

ESNX 201130Z 2012/2020 16008KT 9999 SCT020 BKN040 TEMPO 2012/2020 RA BKN013=

ESIA (13:20 UTC)

Karlsborg

METAR

ESIA 201320Z 09006KT 9999 SCT027 BKN044 OVC060 10/05 Q1026=

TAF

SHRATCU

ESIA 200830Z 2009/2014 07012KT 9999 FEW020 TEMPO 2009/2014 -SHRA BKN020TCU RMK MIL=

ESUP (13:20 UTC)

Pajala

METAR

ESUP 201320Z AUTO 15010KT 120V200 9999 FEW022/// BKN030/// OVC041/// 07/02 Q1030 RERA=

TAF

Ingen TAF hittades.

ESPE (13:20 UTC)

Vidsel

METAR

SHRA

ESPE 201320Z 15006KT 9999 -SHRA FEW023 BKN048 06/04 Q1029=

TAF

ESPE 201120Z 2012/2014 13010KT 9999 FEW020 BKN045 RMK MIL=

ESCM (13:20 UTC)

Uppsala

METAR

ESCM 201320Z AUTO 08003KT 060V120 9999 SCT035/// OVC062/// 10/03 Q1026=

TAF

TCU

ESCM 201125Z 2012/2014 06008KT 9999 BKN040 PROB40 2012/2014 BKN025TCU RMK MIL=

ESKM (13:20 UTC)

Mora/Siljan

METAR

ESKM 201320Z AUTO 16004KT 9999 OVC047/// 09/05 Q1026=

TAF

Ingen TAF hittades.

EKRN (12:50 UTC)

Bornholm Airport

METAR

DZ

EKRN 201250Z AUTO 04012KT 9999 -DZ OVC053/// 13/10 Q1023=

TAF

TCU

EKRN 201128Z 2012/2021 07008KT 9999 BKN040 TEMPO 2012/2021 SCT020TCU=

EFIV (13:20 UTC)

Ivalo Airport

METAR

EFIV 201320Z AUTO 22010KT 180V240 CAVOK 08/M01 Q1030=

TAF

Ingen TAF hittades.

EFKT (13:20 UTC)

Kittilä Airport

METAR

EFKT 201320Z AUTO 18011KT 9999 OVC034 06/M02 Q1030=

TAF

EFKT 201132Z 2012/2019 20008KT 9999 BKN035=

EFRO (13:20 UTC)

Rovaniemi Airport

METAR

EFRO 201320Z AUTO 16007KT 120V200 9999 FEW029 06/M01 Q1032=

TAF

EFRO 201132Z 2012/2112 17009KT 9999 BKN030=

EFKE (13:20 UTC)

Kemi-Tornio Airport

METAR

EFKE 201320Z AUTO 14004KT 100V190 9999 BKN033 07/M00 Q1032=

TAF

EFKE 201132Z 2012/2021 13006KT 9999 BKN030=

EFKS (13:20 UTC)

Kuusamo Airport

METAR

EFKS 201320Z AUTO 16010KT 9999 BKN024 05/M01 Q1033=

TAF

Ingen TAF hittades.

EFOU (13:20 UTC)

Oulu Airport

METAR

EFOU 201320Z AUTO 11009KT 9999 OVC030 07/01 Q1032=

TAF

EFOU 201132Z 2012/2112 12009KT 9999 BKN030=

EFKI (13:20 UTC)

Kajaani Airport

METAR

EFKI 201320Z AUTO 07008KT 9999 BKN029 07/01 Q1031=

TAF

EFKI 201132Z 2012/2021 10010KT 9999 BKN028=

EFKK (13:20 UTC)

Kokkola-Pietarsaari/Kruunupyy Airport

METAR

EFKK 201320Z AUTO 13005KT 040V180 9999 OVC032 07/00 Q1030=

TAF

EFKK 201132Z 2012/2021 11006KT 9999 BKN030=

EFVA (13:20 UTC)

Vaasa Airport

METAR

EFVA 201320Z AUTO 09005KT 040V140 9999 OVC028 07/01 Q1029=

TAF

EFVA 201125Z 2012/2112 11006KT 9999 BKN030 BECMG 2109/2111 17010KT=

EFKU (13:20 UTC)

Kuopio Airport

METAR

EFKU 201320Z AUTO 10006KT 060V140 9999 FEW034 09/01 Q1030=

TAF

EFKU 201132Z 2012/2112 10008KT 9999 SCT030=

EFJY (13:20 UTC)

Jyväskylä Airport

METAR

EFJY 201320Z AUTO 09008KT 060V120 9999 FEW030 07/01 Q1029=

TAF

EFJY 201125Z 2012/2112 09007KT 9999 SCT030=

EFTP (13:20 UTC)

Tampere-Pirkkala Airport

METAR

EFTP 201320Z AUTO 06009KT 040V110 9999 FEW032 08/01 Q1027=

TAF

EFTP 201125Z 2012/2112 07006KT 9999 SCT030=

EFPO (13:20 UTC)

Pori Airport

METAR

EFPO 201320Z AUTO 07006KT 030V110 9999 SCT035 09/00 Q1028=

TAF

EFPO 201125Z 2012/2018 07005KT 9999 SCT030=

EFTU (13:20 UTC)

Turku Airport

METAR

EFTU 201320Z AUTO 08008KT 030V110 CAVOK 11/01 Q1026=

TAF

EFTU 201125Z 2012/2112 06005KT 9999 FEW030 PROB30 2101/2104 2000 MIFG=

EFHK (13:20 UTC)

Helsinki-Vantaa Airport

METAR

EFHK 201320Z 03011KT 9999 FEW033 09/02 Q1026 NOSIG=

TAF

EFHK 201125Z 2012/2112 04009KT 9999 FEW030=

EFMA (13:20 UTC)

Mariehamn Airport

METAR

EFMA 201320Z AUTO 05006KT 030V090 9999 OVC038 09/02 Q1027=

TAF

EFMA 201125Z 2012/2021 06006KT 9999 SCT030=

EKSB (12:50 UTC)

Sønderborg Airport

METAR

EKSB 201250Z 04005KT 360V070 9999 SCT040 14/07 Q1024=

TAF

EKSB 201133Z 2012/2018 04008KT 9999 SCT040=

EKSP (12:50 UTC)

Vojens Airport

METAR

EKSP 201250Z 06007KT 010V110 9999 FEW042 SCT060 14/04 Q1024 NOSIG=

TAF

EKSP 201110Z 2012/2112 08008KT 9999 BKN055 BECMG 2016/2019 VRB03KT BECMG 2105/2107 19010KT=

EKEB (12:50 UTC)

Esbjerg Airport

METAR

EKEB 201250Z AUTO VRB02KT 9999 SCT035/// BKN066/// 14/06 Q1024=

TAF

EKEB 201128Z 2012/2021 10006KT 9999 BKN045=

EKYT (12:50 UTC)

Aalborg Airport

METAR

EKYT 201250Z 08007KT 9999 BKN033 12/07 Q1025=

TAF

RA

EKYT 201102Z 2012/2112 08007KT 9999 BKN045 BECMG 2016/2019 VRB02KT BECMG 2105/2108 18008KT BECMG 2108/2110 4000 -RA BKN008 BECMG 2110/2112 29010KT 9999 NSW SCT020=

EKKA (12:50 UTC)

Karup Airport

METAR

EKKA 201250Z AUTO 06007KT 9999 SCT031/// BKN042/// OVC061/// 13/06 Q1025 NOSIG=

TAF

RA

EKKA 201102Z 2012/2112 08006KT 9999 BKN045 BECMG 2016/2019 VRB03KT BECMG 2102/2105 18008KT BECMG 2108/2110 4000 -RA BKN008 BECMG 2110/2112 29010KT 9999 NSW SCT020=

EKBI (12:50 UTC)

Billund Airport

METAR

EKBI 201250Z AUTO 13003KT 9999 FEW032/// OVC063/// 13/05 Q1025=

TAF

RA

EKBI 201108Z 2012/2112 VRB03KT 9999 BKN045 BECMG 2105/2108 18010KT TEMPO 2108/2112 -RA BKN008 BECMG 2110/2112 30010KT=

EKVD (12:50 UTC)

Kolding Airport

METAR

EKVD 201250Z 08009KT 9999 FEW030 SCT070 14/04 Q1024=

TAF

EKVD 201133Z 2012/2016 06008KT 9999 SCT045=

EKOD (12:50 UTC)

Odense Airport

METAR

EKOD 201250Z 06005KT 030V110 9999 FEW028 SCT050 14/03 Q1024=

TAF

EKOD 201133Z 2012/2016 06008KT 9999 SCT040=

EKCH (12:50 UTC)

Copenhagen Airport, Kastrup

METAR

EKCH 201250Z AUTO 35006KT 320V020 9999 FEW041/// 14/05 Q1024 NOSIG=

TAF

EKCH 201108Z 2012/2112 03010KT 9999 SCT040 BECMG 2020/2023 33006KT=

EKRK (12:50 UTC)

Copenhagen Airport, Roskilde

METAR

EKRK 201250Z AUTO 02004KT 350V050 9999 BKN041/// 13/04 Q1024=

TAF

EKRK 201128Z 2012/2021 05006KT 9999 SCT035=

ENRY (13:20 UTC)

Moss flygplats, Rygge

METAR

ENRY 201320Z 09003KT 350V130 9999 BKN045 11/02 Q1026 NOSIG=

TAF

RA

ENRY 201100Z 2012/2112 VRB03KT 9999 BKN040 TEMPO 2107/2112 20010KT 4000 RA BKN012=

ENGM (13:20 UTC)

Oslo flygplats, Gardermoen

METAR

ENGM 201320Z 20009KT 9999 BKN038 09/02 Q1026 NOSIG=

TAF

RA

ENGM 201100Z 2012/2112 18005KT 9999 BKN040 TEMPO 2103/2110 RA BKN012=

ENTO (13:20 UTC)

Sandefjord flygplats, Torp

METAR

ENTO 201320Z 11003KT 080V140 9999 BKN039 10/03 Q1026 NOSIG=

TAF

RA

ENTO 201100Z 2012/2112 18005KT 9999 BKN040 TEMPO 2106/2109 4000 -RA BKN006 BECMG 2107/2109 27010KT=

ENCN (13:20 UTC)

Kristiansand flygplats, Kjevik

METAR

SHRA

ENCN 201320Z 09004KT 060V120 9999 VCSH FEW025 BKN053 12/06 Q1026=

TAF

DZ

ENCN 201100Z 2012/2020 05008KT 9999 -DZ FEW010 BKN040 TEMPO 2012/2015 DZ=

ENZV (13:20 UTC)

Stavanger-Sola flygplats

METAR

ENZV 201320Z 16011KT 140V200 9999 FEW043 15/06 Q1024 NOSIG=

TAF

RA

ENZV 201100Z 2012/2112 15012KT 9999 FEW040 SCT080 TEMPO 2022/2105 4000 RADZ BKN008 BECMG 2101/2103 29008KT=

ENHD (13:20 UTC)

Haugesund flygplats, Karmøy

METAR

ENHD 201320Z 18012KT 150V210 9999 FEW041 15/05 Q1024=

TAF

ENHD 201100Z 2012/2019 17018KT 9999 FEW040 SCT080=

ENBR (13:20 UTC)

Bergen flygplats, Flesland

METAR

ENBR 201320Z 17014KT CAVOK 14/05 Q1023 NOSIG RMK WIND 1200FT 15018KT=

TAF

SHRABRTCU

ENBR 201100Z 2012/2112 17012KT 9999 FEW035 BKN060 TEMPO 2012/2024 17015G25KT BECMG 2021/2023 4000 RADZ BR BKN008 BECMG 2100/2102 25007KT 9999 -SHRA FEW012TCU BKN020=

ENBL (12:50 UTC)

Førde flygplats, Bringeland

METAR

ENBL 201250Z 19008KT 9999 SCT030 BKN035 12/06 Q1022=

TAF

Ingen TAF hittades.

ENOV (12:50 UTC)

Ørsta-Volda flygplats, Hovden

METAR

ENOV 201250Z VRB05KT 9999 FEW040 SCT045 BKN100 15/06 Q1020 RMK WIND 2175FT 16021KT=

TAF

Ingen TAF hittades.

ENML (12:50 UTC)

Molde flygplats, Årø

METAR

SHRA

ENML 201250Z 08003KT 9999 VCSH FEW004 BKN070 14/10 Q1020=

TAF

ENML 201100Z 2012/2020 VRB05KT 9999 FEW010 BKN060=

ENKB (12:50 UTC)

Kristiansund flygplats, Kvernberget

METAR

DZ

ENKB 201250Z VRB03KT 9999 -DZ FEW008 SCT019 BKN059 12/09 Q1020 RMK WIND 745FT 14010KT=

TAF

ENKB 201100Z 2012/2021 11007KT 9999 FEW012 BKN060=

ENRO (13:20 UTC)

Røros flygplats

METAR

ENRO 201320Z 17006KT 140V210 9999 BKN021 07/02 Q1022=

TAF

ENRO 201100Z 2012/2020 16008KT 9999 BKN020=

ENVA (13:20 UTC)

Trondheim flygplats, Værnes

METAR

ENVA 201320Z 14005KT 9999 SCT051 14/05 Q1021 NOSIG RMK WIND 670FT 17012KT=

TAF

SHRACB

ENVA 201100Z 2012/2112 16010KT 9999 FEW045 BKN060 PROB40 TEMPO 2012/2102 16015G25KT TEMPO 2102/2106 RA PROB30 TEMPO 2109/2112 24010KT SHRA BKN020CB=

ENOL (13:20 UTC)

Ørland flygplats

METAR

ENOL 201320Z 15010KT 9999 FEW030 BKN060 14/07 Q1020 NOSIG=

TAF

SHRACB

ENOL 201100Z 2012/2112 13012KT 9999 SCT020 BKN060 TEMPO 2019/2102 14015G25KT TEMPO 2100/2104 RA BECMG 2103/2105 22015KT TEMPO 2104/2112 24018G28KT SHRA BKN018CB=

ENBN (12:50 UTC)

Brønnøysund flygplats, Brønnøy

METAR

ENBN 201250Z 14013KT 090V160 CAVOK 12/04 Q1022=

TAF

ENBN 201100Z 2012/2021 13015KT 9999 SCT050 TEMPO 2012/2021 15015G25KT=

ENRA (12:50 UTC)

Mo i Rana flygplats, Røssvoll

METAR

ENRA 201250Z 13012G22KT 9999 BKN050 10/M01 Q1024=

TAF

ENRA 201100Z 2012/2021 12015G25KT 9999 BKN050 TEMPO 2012/2021 14009KT=

ENBO (13:20 UTC)

Bodö flygplats

METAR

ENBO 201320Z 14011KT 9999 BKN055 11/01 Q1022 NOSIG=

TAF

RA

ENBO 201100Z 2012/2112 12015KT 9999 FEW030 SCT050 TEMPO 2012/2021 14018G28KT TEMPO 2021/2106 14025G35KT TEMPO 2106/2110 14018G28KT RA=

ENSH (12:50 UTC)

Svolvær flygplats, Helle

METAR

ENSH 201250Z 19014KT CAVOK 12/01 Q1022 RMK WIND 150FT 18018KT=

TAF

ENSH 201100Z 2012/2021 16015KT 9999 FEW050=

ENAN (13:20 UTC)

Andøya flygplats

METAR

ENAN 201320Z 15012KT 9999 FEW053 11/03 Q1021=

TAF

ENAN 201100Z 2012/2112 18015KT CAVOK TEMPO 2018/2112 18015G25KT=

ENEV (12:50 UTC)

Harstad-Narvik flygplats

METAR

ENEV 201250Z 18006KT 150V210 CAVOK 13/01 Q1022 RMK WIND 1400FT 22011KT=

TAF

ENEV 201100Z 2012/2021 17008KT CAVOK=

ENDU (13:20 UTC)

Bardufoss flygplats

METAR

ENDU 201320Z VRB02KT CAVOK 14/M00 Q1022 NOSIG RMK WIND 1100FT 05006KT WIND 2200FT 09006KT=

TAF

ENDU 201100Z 2012/2112 12008KT CAVOK TEMPO 2106/2112 11015G25KT=

ENTC (13:20 UTC)

Tromsø flygplats

METAR

ENTC 201320Z 20007KT CAVOK 12/00 Q1022 NOSIG RMK WIND 2600FT 18023KT=

TAF

ENTC 201100Z 2012/2112 22012KT CAVOK=

ENAT (12:50 UTC)

Alta flygplats

METAR

ENAT 201250Z 17009G20KT 130V230 9999 FEW042 10/00 Q1026 RMK WIND 700FT 20026G38KT=

TAF

ENAT 201100Z 2012/2021 18008KT CAVOK TEMPO 2012/2021 19015G25KT=

ENNA (12:50 UTC)

Lakselv flygplats

METAR

ENNA 201250Z 18028KT CAVOK 11/M00 Q1025 RMK WIND 1800FT 17013KT=

TAF

ENNA 201100Z 2012/2112 18020KT CAVOK TEMPO 2012/2106 18020G30KT TEMPO 2106/2112 18030G40KT=

ENHF (12:50 UTC)

Hammerfest flygplats

METAR

ENHF 201250Z 19011KT 160V220 CAVOK 10/01 Q1023 RMK WIND 1254FT 19019KT=

TAF

ENHF 201100Z 2012/2021 22010KT CAVOK PROB40 TEMPO 2012/2021 20015G25KT=

ENKR (12:50 UTC)

Kirkenes Airport, Høybuktmoen

METAR

ENKR 201250Z 21016KT CAVOK 08/M01 Q1030 RMK WIND 731FT 22024KT=

TAF

ENKR 201100Z 2012/2021 20015KT CAVOK=

ENLK (12:50 UTC)

Leknes Airport

METAR

ENLK 201250Z 14013KT CAVOK 11/02 Q1022=

TAF

Ingen TAF hittades.

ENNO (12:50 UTC)

Notodden Airport, Tuven

METAR

ENNO 201250Z 11003KT 9999 FEW038 BKN047 12/05 Q1026=

TAF

ENNO 201100Z 2012/2017 VRB03KT 9999 BKN050=

ENST (12:50 UTC)

Sandnessjøen Airport, Stokka

METAR

ENST 201250Z VRB06KT CAVOK 12/02 Q1022 RMK WIND 300FT 13014KT=

TAF

Ingen TAF hittades.

ENSB (13:20 UTC)

Svalbard Airport, Longyear

METAR

RA

ENSB 201320Z 27005KT 160V330 9999 -RA FEW010 BKN030 08/05 Q1008 NOSIG RMK WIND 1400FT 20014KT=

TAF

RA

ENSB AMD 201222Z 2012/2112 23008KT 9999 -RA FEW005 BKN030 TEMPO 2016/2106 20015G25KT=

ENSK (12:50 UTC)

Stokmarknes Airport, Skagen

METAR

ENSK 201250Z 18009KT CAVOK 12/02 Q1022=

TAF

Ingen TAF hittades.

ENSR (12:50 UTC)

Sørkjosen Airport

METAR

ENSR 201250Z 13016T CAVOK 12/01 Q1023 RMK WIND 1119FT 12018G30KT=

TAF

Ingen TAF hittades.

ENNM (12:50 UTC)

Namsos Airport, Høknesøra

METAR

ENNM 201250Z 10014KT CAVOK 13/05 Q1021=

TAF

Ingen TAF hittades.